sensor_id;sensor_type;location;lat;lon;timestamp;pressure;altitude;pressure_sealevel;temperature;humidity
55351;BME280;62194;49.480;10.986;2023-03-26T00:00:02;97616.78;;;6.98;80.12
55351;BME280;62194;49.480;10.986;2023-03-26T00:00:14;97610.59;;;6.97;79.92
55351;BME280;62194;49.480;10.986;2023-03-26T00:00:22;97620.66;;;6.97;79.96
55351;BME280;62194;49.480;10.986;2023-03-26T00:00:28;97617.47;;;6.95;79.95
55351;BME280;62194;49.480;10.986;2023-03-26T00:00:45;97611.69;;;6.96;79.88
55351;BME280;62194;49.480;10.986;2023-03-26T00:00:54;97618.84;;;7.01;80.02
55351;BME280;62194;49.480;10.986;2023-03-26T00:01:01;97612.16;;;6.98;80.17
55351;BME280;62194;49.480;10.986;2023-03-26T00:01:15;97621.06;;;6.99;79.77
55351;BME280;62194;49.480;10.986;2023-03-26T00:01:23;97622.81;;;7.03;79.85
55351;BME280;62194;49.480;10.986;2023-03-26T00:01:30;97614.19;;;7.01;79.98
55351;BME280;62194;49.480;10.986;2023-03-26T00:01:37;97619.97;;;7.00;79.94
55351;BME280;62194;49.480;10.986;2023-03-26T00:01:43;97617.38;;;7.03;79.88
55351;BME280;62194;49.480;10.986;2023-03-26T00:01:52;97620.41;;;7.02;79.86
55351;BME280;62194;49.480;10.986;2023-03-26T00:01:58;97613.28;;;6.97;79.72
55351;BME280;62194;49.480;10.986;2023-03-26T00:02:03;97619.97;;;7.00;79.94
55351;BME280;62194;49.480;10.986;2023-03-26T00:02:09;97617.94;;;6.97;79.74
55351;BME280;62194;49.480;10.986;2023-03-26T00:02:14;97618.06;;;7.00;80.19
55351;BME280;62194;49.480;10.986;2023-03-26T00:02:23;97609.81;;;6.97;80.14
55351;BME280;62194;49.480;10.986;2023-03-26T00:02:28;97614.09;;;6.98;79.78
55351;BME280;62194;49.480;10.986;2023-03-26T00:02:34;97629.00;;;7.04;79.52
55351;BME280;62194;49.480;10.986;2023-03-26T00:02:42;97617.25;;;7.00;79.56
55351;BME280;62194;49.480;10.986;2023-03-26T00:02:48;97619.81;;;6.96;79.55
55351;BME280;62194;49.480;10.986;2023-03-26T00:02:53;97617.69;;;7.02;79.84
55351;BME280;62194;49.480;10.986;2023-03-26T00:02:59;97621.53;;;7.01;79.84
55351;BME280;62194;49.480;10.986;2023-03-26T00:03:04;97611.69;;;6.96;79.81
55351;BME280;62194;49.480;10.986;2023-03-26T00:03:10;97613.28;;;6.97;79.60
55351;BME280;62194;49.480;10.986;2023-03-26T00:03:18;97616.91;;;7.01;79.15
55351;BME280;62194;49.480;10.986;2023-03-26T00:03:24;97615.00;;;7.02;79.33
55351;BME280;62194;49.480;10.986;2023-03-26T00:03:32;97624.03;;;7.06;79.26
55351;BME280;62194;49.480;10.986;2023-03-26T00:03:41;97612.94;;;6.99;79.46
55351;BME280;62194;49.480;10.986;2023-03-26T00:03:49;97632.16;;;7.06;79.15
55351;BME280;62194;49.480;10.986;2023-03-26T00:04:05;97605.84;;;6.94;79.21
55351;BME280;62194;49.480;10.986;2023-03-26T00:04:13;97612.16;;;6.98;79.14
55351;BME280;62194;49.480;10.986;2023-03-26T00:04:23;97613.28;;;6.97;79.10
55351;BME280;62194;49.480;10.986;2023-03-26T00:04:29;97614.09;;;6.98;79.19
55351;BME280;62194;49.480;10.986;2023-03-26T00:04:37;97619.31;;;7.03;78.93
55351;BME280;62194;49.480;10.986;2023-03-26T00:04:43;97626.63;;;7.02;79.15
55351;BME280;62194;49.480;10.986;2023-03-26T00:04:50;97623.59;;;7.04;78.87
55351;BME280;62194;49.480;10.986;2023-03-26T00:04:57;97614.56;;;7.00;79.00
55351;BME280;62194;49.480;10.986;2023-03-26T00:05:02;97611.03;;;6.99;78.89
55351;BME280;62194;49.480;10.986;2023-03-26T00:05:08;97622.34;;;7.01;79.12
55351;BME280;62194;49.480;10.986;2023-03-26T00:05:14;97613.41;;;7.01;79.01
55351;BME280;62194;49.480;10.986;2023-03-26T00:05:22;97610.59;;;6.97;79.02
55351;BME280;62194;49.480;10.986;2023-03-26T00:05:28;97628.53;;;7.02;79.06
55351;BME280;62194;49.480;10.986;2023-03-26T00:05:37;97603.13;;;6.94;78.98
55351;BME280;62194;49.480;10.986;2023-03-26T00:05:43;97610.59;;;6.97;78.87
55351;BME280;62194;49.480;10.986;2023-03-26T00:06:16;97630.47;;;7.01;78.98
55351;BME280;62194;49.480;10.986;2023-03-26T00:06:30;97629.78;;;7.04;79.30
55351;BME280;62194;49.480;10.986;2023-03-26T00:06:38;97618.84;;;7.01;79.57
55351;BME280;62194;49.480;10.986;2023-03-26T00:06:44;97618.06;;;7.00;79.44
55351;BME280;62194;49.480;10.986;2023-03-26T00:06:52;97614.88;;;6.98;79.24
55351;BME280;62194;49.480;10.986;2023-03-26T00:06:58;97625.38;;;7.00;79.30
55351;BME280;62194;49.480;10.986;2023-03-26T00:07:03;97618.06;;;7.00;79.27
55351;BME280;62194;49.480;10.986;2023-03-26T00:07:09;97616.00;;;6.97;79.17
55351;BME280;62194;49.480;10.986;2023-03-26T00:07:14;97618.06;;;7.00;79.17
55351;BME280;62194;49.480;10.986;2023-03-26T00:07:20;97623.13;;;7.02;79.26
55351;BME280;62194;49.480;10.986;2023-03-26T00:07:25;97622.69;;;7.00;78.99
55351;BME280;62194;49.480;10.986;2023-03-26T00:07:32;97622.44;;;7.05;79.25
55351;BME280;62194;49.480;10.986;2023-03-26T00:07:37;97616.44;;;6.99;79.20
55351;BME280;62194;49.480;10.986;2023-03-26T00:07:42;97616.44;;;6.99;79.13
55351;BME280;62194;49.480;10.986;2023-03-26T00:07:48;97621.19;;;7.02;79.22
55351;BME280;62194;49.480;10.986;2023-03-26T00:07:53;97624.38;;;7.04;79.06
55351;BME280;62194;49.480;10.986;2023-03-26T00:07:58;97616.78;;;6.98;79.25
55351;BME280;62194;49.480;10.986;2023-03-26T00:08:04;97622.22;;;6.98;79.14
55351;BME280;62194;49.480;10.986;2023-03-26T00:08:14;97626.97;;;7.01;79.70
55351;BME280;62194;49.480;10.986;2023-03-26T00:08:20;97626.19;;;7.00;79.53
55351;BME280;62194;49.480;10.986;2023-03-26T00:08:26;97626.97;;;7.01;79.31
55351;BME280;62194;49.480;10.986;2023-03-26T00:08:35;97622.81;;;7.03;79.36
55351;BME280;62194;49.480;10.986;2023-03-26T00:08:42;97623.13;;;7.02;79.24
55351;BME280;62194;49.480;10.986;2023-03-26T00:08:50;97633.19;;;7.01;79.38
55351;BME280;62194;49.480;10.986;2023-03-26T00:08:56;97625.84;;;7.02;79.42
55351;BME280;62194;49.480;10.986;2023-03-26T00:09:04;97628.22;;;7.03;79.64
55351;BME280;62194;49.480;10.986;2023-03-26T00:09:10;97619.38;;;6.94;79.50
55351;BME280;62194;49.480;10.986;2023-03-26T00:09:17;97627.63;;;6.98;79.67
55351;BME280;62194;49.480;10.986;2023-03-26T00:09:22;97630.00;;;6.99;79.70
55351;BME280;62194;49.480;10.986;2023-03-26T00:09:28;97626.06;;;6.97;79.61
55351;BME280;62194;49.480;10.986;2023-03-26T00:09:33;97630.81;;;7.00;79.47
55351;BME280;62194;49.480;10.986;2023-03-26T00:09:39;97636.25;;;7.00;79.74
55351;BME280;62194;49.480;10.986;2023-03-26T00:09:44;97626.38;;;6.95;79.79
55351;BME280;62194;49.480;10.986;2023-03-26T00:09:49;97627.44;;;7.03;79.83
55351;BME280;62194;49.480;10.986;2023-03-26T00:09:55;97628.53;;;7.02;79.81
55351;BME280;62194;49.480;10.986;2023-03-26T00:10:02;97617.34;;;6.91;79.55
55351;BME280;62194;49.480;10.986;2023-03-26T00:10:08;97626.84;;;6.97;79.82
55351;BME280;62194;49.480;10.986;2023-03-26T00:10:13;97624.56;;;6.99;79.54
55351;BME280;62194;49.480;10.986;2023-03-26T00:10:19;97626.50;;;6.99;79.19
55351;BME280;62194;49.480;10.986;2023-03-26T00:10:24;97635.09;;;7.01;79.21
55351;BME280;62194;49.480;10.986;2023-03-26T00:10:30;97624.56;;;6.99;79.25
55351;BME280;62194;49.480;10.986;2023-03-26T00:10:37;97626.50;;;6.99;79.12
55351;BME280;62194;49.480;10.986;2023-03-26T00:10:42;97635.41;;;6.99;79.25
55351;BME280;62194;49.480;10.986;2023-03-26T00:10:48;97633.53;;;7.00;79.49
55351;BME280;62194;49.480;10.986;2023-03-26T00:10:53;97627.63;;;6.98;79.27
55351;BME280;62194;49.480;10.986;2023-03-26T00:10:59;97632.38;;;7.01;79.38
55351;BME280;62194;49.480;10.986;2023-03-26T00:11:06;97633.19;;;7.01;79.52
55351;BME280;62194;49.480;10.986;2023-03-26T00:11:14;97630.00;;;6.99;79.39
55351;BME280;62194;49.480;10.986;2023-03-26T00:11:21;97616.69;;;6.94;79.44
55351;BME280;62194;49.480;10.986;2023-03-26T00:11:28;97633.53;;;7.00;79.48
55351;BME280;62194;49.480;10.986;2023-03-26T00:11:33;97627.28;;;6.99;79.79
55351;BME280;62194;49.480;10.986;2023-03-26T00:11:39;97632.50;;;7.04;80.19
55351;BME280;62194;49.480;10.986;2023-03-26T00:11:44;97629.44;;;7.06;80.36
55351;BME280;62194;49.480;10.986;2023-03-26T00:11:50;97623.69;;;7.08;80.17
55351;BME280;62194;49.480;10.986;2023-03-26T00:11:56;97626.53;;;7.11;80.09
55351;BME280;62194;49.480;10.986;2023-03-26T00:12:01;97623.59;;;7.04;80.23
55351;BME280;62194;49.480;10.986;2023-03-26T00:12:06;97627.19;;;7.08;80.09
55351;BME280;62194;49.480;10.986;2023-03-26T00:12:12;97629.44;;;7.06;79.89
55351;BME280;62194;49.480;10.986;2023-03-26T00:12:17;97624.84;;;7.07;79.56
55351;BME280;62194;49.480;10.986;2023-03-26T00:12:22;97630.16;;;7.03;79.58
55351;BME280;62194;49.480;10.986;2023-03-26T00:12:28;97625.84;;;7.02;79.37
55351;BME280;62194;49.480;10.986;2023-03-26T00:12:33;97626.72;;;7.06;79.40
55351;BME280;62194;49.480;10.986;2023-03-26T00:12:38;97623.22;;;7.06;79.25
55351;BME280;62194;49.480;10.986;2023-03-26T00:12:44;97627.75;;;7.01;79.21
55351;BME280;62194;49.480;10.986;2023-03-26T00:12:50;97626.28;;;7.04;79.25
55351;BME280;62194;49.480;10.986;2023-03-26T00:12:55;97634.53;;;7.08;79.38
55351;BME280;62194;49.480;10.986;2023-03-26T00:13:01;97625.38;;;7.00;79.34
55351;BME280;62194;49.480;10.986;2023-03-26T00:13:07;97622.00;;;7.03;79.34
55351;BME280;62194;49.480;10.986;2023-03-26T00:13:13;97623.78;;;6.99;79.31
55351;BME280;62194;49.480;10.986;2023-03-26T00:13:18;97632.16;;;7.06;79.36
55351;BME280;62194;49.480;10.986;2023-03-26T00:13:24;97621.44;;;6.97;79.66
55351;BME280;62194;49.480;10.986;2023-03-26T00:13:29;97621.06;;;6.99;79.79
55351;BME280;62194;49.480;10.986;2023-03-26T00:13:35;97636.78;;;7.06;79.53
55351;BME280;62194;49.480;10.986;2023-03-26T00:13:44;97627.28;;;6.99;79.56
55351;BME280;62194;49.480;10.986;2023-03-26T00:13:49;97626.84;;;6.97;79.51
55351;BME280;62194;49.480;10.986;2023-03-26T00:13:57;97637.13;;;7.04;79.80
55351;BME280;62194;49.480;10.986;2023-03-26T00:14:03;97630.34;;;6.98;79.79
55351;BME280;62194;49.480;10.986;2023-03-26T00:14:09;97617.94;;;6.97;79.79
55351;BME280;62194;49.480;10.986;2023-03-26T00:14:17;97625.25;;;6.96;79.74
55351;BME280;62194;49.480;10.986;2023-03-26T00:14:23;97632.03;;;7.02;79.69
55351;BME280;62194;49.480;10.986;2023-03-26T00:14:28;97626.06;;;6.97;79.95
55351;BME280;62194;49.480;10.986;2023-03-26T00:14:34;97625.25;;;6.96;80.27
55351;BME280;62194;49.480;10.986;2023-03-26T00:14:39;97630.81;;;7.00;80.20
55351;BME280;62194;49.480;10.986;2023-03-26T00:14:45;97636.66;;;7.02;80.20
55351;BME280;62194;49.480;10.986;2023-03-26T00:14:50;97629.88;;;6.96;80.07
55351;BME280;62194;49.480;10.986;2023-03-26T00:14:56;97621.75;;;6.96;80.00
55351;BME280;62194;49.480;10.986;2023-03-26T00:15:02;97632.28;;;6.97;80.42
55351;BME280;62194;49.480;10.986;2023-03-26T00:15:08;97638.94;;;7.00;80.01
55351;BME280;62194;49.480;10.986;2023-03-26T00:15:14;97642.09;;;7.02;80.02
55351;BME280;62194;49.480;10.986;2023-03-26T00:15:19;97633.84;;;6.98;80.00
55351;BME280;62194;49.480;10.986;2023-03-26T00:15:25;97629.56;;;6.97;79.83
55351;BME280;62194;49.480;10.986;2023-03-26T00:15:31;97644.81;;;7.02;79.81
55351;BME280;62194;49.480;10.986;2023-03-26T00:15:37;97640.16;;;7.02;79.90
55351;BME280;62194;49.480;10.986;2023-03-26T00:15:42;97624.13;;;6.97;79.75
55351;BME280;62194;49.480;10.986;2023-03-26T00:15:47;97639.84;;;7.04;79.77
55351;BME280;62194;49.480;10.986;2023-03-26T00:15:53;97629.22;;;6.99;79.76
55351;BME280;62194;49.480;10.986;2023-03-26T00:15:59;97633.53;;;7.00;79.56
55351;BME280;62194;49.480;10.986;2023-03-26T00:16:05;97624.94;;;6.98;79.58
55351;BME280;62194;49.480;10.986;2023-03-26T00:16:15;97639.38;;;7.02;79.75
55351;BME280;62194;49.480;10.986;2023-03-26T00:16:22;97636.25;;;7.00;79.76
55351;BME280;62194;49.480;10.986;2023-03-26T00:16:29;97632.72;;;6.99;80.10
55351;BME280;62194;49.480;10.986;2023-03-26T00:16:35;97642.22;;;7.06;80.13
55351;BME280;62194;49.480;10.986;2023-03-26T00:16:40;97635.09;;;7.01;79.94
55351;BME280;62194;49.480;10.986;2023-03-26T00:16:46;97632.72;;;6.99;80.20
55351;BME280;62194;49.480;10.986;2023-03-26T00:16:53;97633.53;;;7.00;79.86
55351;BME280;62194;49.480;10.986;2023-03-26T00:16:58;97644.47;;;7.03;79.86
55351;BME280;62194;49.480;10.986;2023-03-26T00:17:04;97632.38;;;7.01;79.70
55351;BME280;62194;49.480;10.986;2023-03-26T00:17:09;97644.13;;;7.05;79.84
55351;BME280;62194;49.480;10.986;2023-03-26T00:17:14;97637.03;;;7.00;79.65
55351;BME280;62194;49.480;10.986;2023-03-26T00:17:20;97627.63;;;6.98;79.80
55351;BME280;62194;49.480;10.986;2023-03-26T00:17:25;97631.13;;;6.98;80.03
55351;BME280;62194;49.480;10.986;2023-03-26T00:17:31;97636.66;;;7.02;79.53
55351;BME280;62194;49.480;10.986;2023-03-26T00:17:36;97628.88;;;7.00;79.55
55351;BME280;62194;49.480;10.986;2023-03-26T00:17:42;97632.84;;;7.03;79.66
55351;BME280;62194;49.480;10.986;2023-03-26T00:17:50;97635.56;;;7.03;79.53
55351;BME280;62194;49.480;10.986;2023-03-26T00:17:58;97625.72;;;6.98;79.62
55351;BME280;62194;49.480;10.986;2023-03-26T00:18:06;97637.13;;;7.04;79.48
55351;BME280;62194;49.480;10.986;2023-03-26T00:18:13;97628.88;;;7.00;79.58
55351;BME280;62194;49.480;10.986;2023-03-26T00:18:19;97618.13;;;6.92;79.73
55351;BME280;62194;49.480;10.986;2023-03-26T00:18:26;97627.53;;;6.94;79.56
55351;BME280;62194;49.480;10.986;2023-03-26T00:18:35;97624.34;;;6.92;79.59
55351;BME280;62194;49.480;10.986;2023-03-26T00:18:42;97639.25;;;6.98;80.07
55351;BME280;62194;49.480;10.986;2023-03-26T00:18:48;97635.09;;;7.01;79.74
55351;BME280;62194;49.480;10.986;2023-03-26T00:18:56;97622.41;;;6.93;79.62
55351;BME280;62194;49.480;10.986;2023-03-26T00:19:02;97627.16;;;6.96;79.76
55351;BME280;62194;49.480;10.986;2023-03-26T00:19:09;97625.25;;;6.96;79.82
55351;BME280;62194;49.480;10.986;2023-03-26T00:19:15;97624.81;;;6.94;79.78
55351;BME280;62194;49.480;10.986;2023-03-26T00:19:20;97626.06;;;6.97;79.67
55351;BME280;62194;49.480;10.986;2023-03-26T00:19:26;97619.72;;;6.93;79.66
55351;BME280;62194;49.480;10.986;2023-03-26T00:19:32;97629.09;;;6.95;79.66
55351;BME280;62194;49.480;10.986;2023-03-26T00:19:38;97631.13;;;6.98;79.51
55351;BME280;62194;49.480;10.986;2023-03-26T00:19:46;97628.66;;;6.93;79.47
55351;BME280;62194;49.480;10.986;2023-03-26T00:19:51;97625.59;;;6.95;79.76
55351;BME280;62194;49.480;10.986;2023-03-26T00:19:57;97624.03;;;6.94;79.60
55351;BME280;62194;49.480;10.986;2023-03-26T00:20:04;97638.94;;;7.00;79.64
55351;BME280;62194;49.480;10.986;2023-03-26T00:20:10;97624.34;;;6.92;79.84
55351;BME280;62194;49.480;10.986;2023-03-26T00:20:15;97630.22;;;6.94;80.14
55351;BME280;62194;49.480;10.986;2023-03-26T00:20:21;97632.59;;;6.96;80.03
55351;BME280;62194;49.480;10.986;2023-03-26T00:20:29;97635.09;;;7.01;80.00
55351;BME280;62194;49.480;10.986;2023-03-26T00:20:37;97627.28;;;6.99;80.07
55351;BME280;62194;49.480;10.986;2023-03-26T00:20:42;97631.13;;;6.98;79.89
55351;BME280;62194;49.480;10.986;2023-03-26T00:20:50;97631.91;;;6.99;79.86
55351;BME280;62194;49.480;10.986;2023-03-26T00:20:57;97633.19;;;7.01;79.94
55351;BME280;62194;49.480;10.986;2023-03-26T00:21:04;97631.13;;;6.98;79.71
55351;BME280;62194;49.480;10.986;2023-03-26T00:21:15;97625.47;;;6.91;79.65
55351;BME280;62194;49.480;10.986;2023-03-26T00:21:23;97639.63;;;6.97;79.82
55351;BME280;62194;49.480;10.986;2023-03-26T00:21:32;97634.06;;;6.93;79.66
55351;BME280;62194;49.480;10.986;2023-03-26T00:21:40;97621.50;;;6.89;79.66
55351;BME280;62194;49.480;10.986;2023-03-26T00:21:46;97632.94;;;6.94;79.63
55351;BME280;62194;49.480;10.986;2023-03-26T00:21:52;97629.75;;;6.92;79.66
55351;BME280;62194;49.480;10.986;2023-03-26T00:21:58;97629.75;;;6.92;79.42
55351;BME280;62194;49.480;10.986;2023-03-26T00:22:03;97630.22;;;6.94;79.58
55351;BME280;62194;49.480;10.986;2023-03-26T00:22:09;97628.50;;;6.90;79.72
55351;BME280;62194;49.480;10.986;2023-03-26T00:22:18;97626.63;;;6.90;80.02
55351;BME280;62194;49.480;10.986;2023-03-26T00:22:23;97634.75;;;6.90;79.92
55351;BME280;62194;49.480;10.986;2023-03-26T00:22:29;97625.81;;;6.90;80.28
55351;BME280;62194;49.480;10.986;2023-03-26T00:22:34;97632.94;;;6.94;80.14
55351;BME280;62194;49.480;10.986;2023-03-26T00:22:40;97627.41;;;6.91;79.88
55351;BME280;62194;49.480;10.986;2023-03-26T00:22:45;97635.97;;;6.93;80.04
55351;BME280;62194;49.480;10.986;2023-03-26T00:22:53;97631.81;;;6.95;79.92
55351;BME280;62194;49.480;10.986;2023-03-26T00:22:59;97638.78;;;6.96;79.93
55351;BME280;62194;49.480;10.986;2023-03-26T00:23:06;97634.19;;;6.97;79.92
55351;BME280;62194;49.480;10.986;2023-03-26T00:23:13;97626.94;;;6.89;79.86
55351;BME280;62194;49.480;10.986;2023-03-26T00:23:18;97620.38;;;6.90;79.75
55351;BME280;62194;49.480;10.986;2023-03-26T00:23:24;97633.25;;;6.93;79.81
55351;BME280;62194;49.480;10.986;2023-03-26T00:23:33;97640.72;;;6.96;79.96
55351;BME280;62194;49.480;10.986;2023-03-26T00:23:39;97625.34;;;6.88;79.64
55351;BME280;62194;49.480;10.986;2023-03-26T00:23:45;97622.66;;;6.88;79.73
55351;BME280;62194;49.480;10.986;2023-03-26T00:23:57;97617.56;;;6.86;79.93
55351;BME280;62194;49.480;10.986;2023-03-26T00:24:10;97636.91;;;6.97;79.82
55351;BME280;62194;49.480;10.986;2023-03-26T00:24:24;97631.38;;;6.93;79.92
55351;BME280;62194;49.480;10.986;2023-03-26T00:24:34;97621.06;;;6.87;79.93
55351;BME280;62194;49.480;10.986;2023-03-26T00:24:41;97630.00;;;6.87;79.80
55351;BME280;62194;49.480;10.986;2023-03-26T00:24:50;97628.50;;;6.90;80.04
55351;BME280;62194;49.480;10.986;2023-03-26T00:24:55;97632.81;;;6.91;80.05
55351;BME280;62194;49.480;10.986;2023-03-26T00:25:01;97638.00;;;6.96;80.00
55351;BME280;62194;49.480;10.986;2023-03-26T00:25:09;97618.56;;;6.82;80.08
55351;BME280;62194;49.480;10.986;2023-03-26T00:25:25;97630.13;;;6.91;80.35
55351;BME280;62194;49.480;10.986;2023-03-26T00:25:31;97633.25;;;6.93;80.45
55351;BME280;62194;49.480;10.986;2023-03-26T00:25:38;97630.13;;;6.91;80.30
55351;BME280;62194;49.480;10.986;2023-03-26T00:25:45;97631.69;;;6.92;80.13
55351;BME280;62194;49.480;10.986;2023-03-26T00:25:55;97635.31;;;6.96;80.21
55351;BME280;62194;49.480;10.986;2023-03-26T00:26:02;97623.91;;;6.90;80.13
55351;BME280;62194;49.480;10.986;2023-03-26T00:26:19;97624.47;;;6.84;80.05
55351;BME280;62194;49.480;10.986;2023-03-26T00:26:29;97619.03;;;6.84;80.02
55351;BME280;62194;49.480;10.986;2023-03-26T00:26:35;97631.22;;;6.90;80.20
55351;BME280;62194;49.480;10.986;2023-03-26T00:26:43;97628.97;;;6.92;80.11
55351;BME280;62194;49.480;10.986;2023-03-26T00:26:48;97619.94;;;6.88;80.16
55351;BME280;62194;49.480;10.986;2023-03-26T00:26:57;97618.38;;;6.87;80.23
55351;BME280;62194;49.480;10.986;2023-03-26T00:27:03;97632.16;;;6.94;80.42
55351;BME280;62194;49.480;10.986;2023-03-26T00:27:09;97622.31;;;6.89;80.48
55351;BME280;62194;49.480;10.986;2023-03-26T00:27:15;97635.31;;;6.96;80.17
55351;BME280;62194;49.480;10.986;2023-03-26T00:27:21;97636.09;;;6.96;80.17
55351;BME280;62194;49.480;10.986;2023-03-26T00:27:27;97633.84;;;6.98;80.08
55351;BME280;62194;49.480;10.986;2023-03-26T00:27:33;97628.66;;;6.93;79.83
55351;BME280;62194;49.480;10.986;2023-03-26T00:27:38;97628.66;;;6.93;79.78
55351;BME280;62194;49.480;10.986;2023-03-26T00:27:43;97621.50;;;6.89;79.90
55351;BME280;62194;49.480;10.986;2023-03-26T00:27:49;97626.25;;;6.92;79.95
55351;BME280;62194;49.480;10.986;2023-03-26T00:27:55;97624.56;;;6.87;80.22
55351;BME280;62194;49.480;10.986;2023-03-26T00:28:00;97615.97;;;6.85;79.76
55351;BME280;62194;49.480;10.986;2023-03-26T00:28:06;97636.91;;;6.97;79.69
55351;BME280;62194;49.480;10.986;2023-03-26T00:28:12;97633.38;;;6.96;79.76
55351;BME280;62194;49.480;10.986;2023-03-26T00:28:18;97638.00;;;6.96;79.83
55351;BME280;62194;49.480;10.986;2023-03-26T00:28:26;97638.00;;;6.96;79.90
55351;BME280;62194;49.480;10.986;2023-03-26T00:28:31;97638.00;;;6.96;79.89
55351;BME280;62194;49.480;10.986;2023-03-26T00:28:38;97621.19;;;6.90;80.14
55351;BME280;62194;49.480;10.986;2023-03-26T00:28:44;97637.69;;;6.97;79.91
55351;BME280;62194;49.480;10.986;2023-03-26T00:28:50;97619.16;;;6.87;80.06
55351;BME280;62194;49.480;10.986;2023-03-26T00:28:56;97631.69;;;6.92;80.07
55351;BME280;62194;49.480;10.986;2023-03-26T00:29:02;97626.72;;;6.94;79.62
55351;BME280;62194;49.480;10.986;2023-03-26T00:29:08;97625.47;;;6.91;79.89
55351;BME280;62194;49.480;10.986;2023-03-26T00:29:14;97640.06;;;6.99;79.81
55351;BME280;62194;49.480;10.986;2023-03-26T00:29:21;97626.94;;;6.89;79.63
55351;BME280;62194;49.480;10.986;2023-03-26T00:29:31;97625.47;;;6.91;79.84
55351;BME280;62194;49.480;10.986;2023-03-26T00:29:37;97630.91;;;6.91;79.65
55351;BME280;62194;49.480;10.986;2023-03-26T00:29:43;97634.06;;;6.93;79.99
55351;BME280;62194;49.480;10.986;2023-03-26T00:29:49;97629.31;;;6.90;79.69
55351;BME280;62194;49.480;10.986;2023-03-26T00:29:54;97637.56;;;6.94;79.77
55351;BME280;62194;49.480;10.986;2023-03-26T00:30:00;97628.84;;;6.88;80.00
55351;BME280;62194;49.480;10.986;2023-03-26T00:30:08;97634.50;;;6.95;79.93
55351;BME280;62194;49.480;10.986;2023-03-26T00:30:14;97633.25;;;6.93;79.80
55351;BME280;62194;49.480;10.986;2023-03-26T00:30:20;97635.19;;;6.92;79.77
55351;BME280;62194;49.480;10.986;2023-03-26T00:30:26;97641.84;;;6.95;79.75
55351;BME280;62194;49.480;10.986;2023-03-26T00:30:34;97647.41;;;6.98;79.82
55351;BME280;62194;49.480;10.986;2023-03-26T00:30:39;97644.38;;;7.00;79.65
55351;BME280;62194;49.480;10.986;2023-03-26T00:30:47;97633.25;;;6.93;79.85
55351;BME280;62194;49.480;10.986;2023-03-26T00:30:59;97630.56;;;6.93;80.13
55351;BME280;62194;49.480;10.986;2023-03-26T00:31:13;97628.78;;;6.97;79.62
55351;BME280;62194;49.480;10.986;2023-03-26T00:31:19;97634.19;;;6.97;79.54
55351;BME280;62194;49.480;10.986;2023-03-26T00:31:24;97644.03;;;7.01;79.72
55351;BME280;62194;49.480;10.986;2023-03-26T00:31:30;97634.75;;;6.90;79.56
55351;BME280;62194;49.480;10.986;2023-03-26T00:31:36;97628.19;;;6.91;79.87
55351;BME280;62194;49.480;10.986;2023-03-26T00:31:43;97630.13;;;6.91;79.80
55351;BME280;62194;49.480;10.986;2023-03-26T00:31:50;97630.91;;;6.91;80.07
55351;BME280;62194;49.480;10.986;2023-03-26T00:31:55;97642.75;;;6.99;79.98
55351;BME280;62194;49.480;10.986;2023-03-26T00:32:01;97641.66;;;7.00;80.01
55351;BME280;62194;49.480;10.986;2023-03-26T00:32:06;97640.53;;;7.01;80.01
55351;BME280;62194;49.480;10.986;2023-03-26T00:32:11;97620.38;;;6.90;79.79
55351;BME280;62194;49.480;10.986;2023-03-26T00:32:17;97626.38;;;6.95;79.90
55351;BME280;62194;49.480;10.986;2023-03-26T00:32:22;97637.81;;;7.01;79.86
55351;BME280;62194;49.480;10.986;2023-03-26T00:32:32;97632.28;;;6.97;79.85
55351;BME280;62194;49.480;10.986;2023-03-26T00:32:37;97644.03;;;7.01;79.95
55351;BME280;62194;49.480;10.986;2023-03-26T00:32:43;97640.41;;;6.97;79.71
55351;BME280;62194;49.480;10.986;2023-03-26T00:32:49;97639.25;;;6.98;79.52
55351;BME280;62194;49.480;10.986;2023-03-26T00:32:54;97627.97;;;6.96;79.79
55351;BME280;62194;49.480;10.986;2023-03-26T00:33:01;97640.16;;;7.02;79.84
55351;BME280;62194;49.480;10.986;2023-03-26T00:33:06;97642.75;;;6.99;79.67
55351;BME280;62194;49.480;10.986;2023-03-26T00:33:11;97630.34;;;6.98;79.53
55351;BME280;62194;49.480;10.986;2023-03-26T00:33:21;97633.06;;;6.98;79.68
55351;BME280;62194;49.480;10.986;2023-03-26T00:33:28;97637.34;;;6.99;79.78
55351;BME280;62194;49.480;10.986;2023-03-26T00:33:33;97635.78;;;6.98;79.79
55351;BME280;62194;49.480;10.986;2023-03-26T00:33:42;97631.47;;;6.97;80.08
55351;BME280;62194;49.480;10.986;2023-03-26T00:33:50;97634.97;;;6.97;79.96
55351;BME280;62194;49.480;10.986;2023-03-26T00:33:59;97634.50;;;6.95;80.21
55351;BME280;62194;49.480;10.986;2023-03-26T00:34:07;97633.38;;;6.96;79.90
55351;BME280;62194;49.480;10.986;2023-03-26T00:34:14;97629.09;;;6.95;79.88
55351;BME280;62194;49.480;10.986;2023-03-26T00:34:22;97642.09;;;7.02;79.80
55351;BME280;62194;49.480;10.986;2023-03-26T00:34:28;97649.56;;;7.05;79.69
55351;BME280;62194;49.480;10.986;2023-03-26T00:34:34;97647.97;;;7.04;79.66
55351;BME280;62194;49.480;10.986;2023-03-26T00:34:40;97640.63;;;7.04;79.60
55351;BME280;62194;49.480;10.986;2023-03-26T00:34:46;97649.56;;;7.05;79.95
55351;BME280;62194;49.480;10.986;2023-03-26T00:34:53;97644.13;;;7.05;79.56
55351;BME280;62194;49.480;10.986;2023-03-26T00:34:59;97632.28;;;6.97;79.71
55351;BME280;62194;49.480;10.986;2023-03-26T00:35:06;97637.13;;;7.04;80.05
55351;BME280;62194;49.480;10.986;2023-03-26T00:35:12;97644.59;;;7.07;79.80
55351;BME280;62194;49.480;10.986;2023-03-26T00:35:18;97641.09;;;7.07;79.65
55351;BME280;62194;49.480;10.986;2023-03-26T00:35:23;97637.94;;;7.04;79.43
55351;BME280;62194;49.480;10.986;2023-03-26T00:35:29;97637.47;;;7.02;79.49
55351;BME280;62194;49.480;10.986;2023-03-26T00:35:35;97639.84;;;7.04;79.22
55351;BME280;62194;49.480;10.986;2023-03-26T00:35:41;97639.38;;;7.02;79.36
55351;BME280;62194;49.480;10.986;2023-03-26T00:35:54;97639.06;;;7.16;79.79
55351;BME280;62194;49.480;10.986;2023-03-26T00:36:07;97632.41;;;7.13;80.13